Terminal Aerodrome Forecast
Issued by NWS Charleston, WV

Home | Current Version | Previous Version | Text Only | Print | Product List | Glossary On
Versions: 1 2 3 4 5 6 7 8 9 10 11 12 13 14 15 16 17 18 19 20 21 22 23 24
285
FTUS41 KRLX 240244 AAA
TAFHTS
TAF AMD
KHTS 240244Z 2403/2424 VRB03KT P6SM OVC035
      TEMPO 2404/2406 BKN025
     FM240600 VRB04KT P6SM OVC025
     FM240800 VRB03KT P6SM OVC010
     FM241400 14004KT 6SM SHRA OVC015
     FM241600 15004KT P6SM SHRA OVC020
     FM242000 11004KT 3SM SHRA OVC020=

USA.gov is the U.S. government's official web portal to all federal, state and local government web resources and services.